Terminal Aerodrome Forecast
Issued by NWS La Crosse, WI

Home | Current Version | Previous Version | Text Only | Print | Product List | Glossary On
Versions: 1 2 3 4 5 6 7 8 9 10 11 12 13 14 15 16 17 18 19 20 21
000
FTUS43 KARX 270525
TAFRST
TAF
KRST 270525Z 2706/2806 28012KT P6SM SKC
     FM271500 30015G23KT P6SM SCT030
     FM271800 30015G23KT P6SM BKN030
     FM272100 31014G22KT P6SM VCSH BKN035
     FM280000 33011KT P6SM BKN015=

USA.gov is the U.S. government's official web portal to all federal, state and local government web resources and services.